Time;durP1;ratioP1;P1;durP2;ratioP2;P2;SDS_P1;SDS_P2;PMS_P1;PMS_P2;Temp;Humidity;BMP_temperature;BMP_pressure;BME280_temperature;BME280_humidity;BME280_pressure;Samples;Min_cycle;Max_cycle;Signal;HPM_P1;HPM_P2
2022/08/06 00:02:23;;;;;;;0.60;0.60;;;;;;;;;;5033256;28;20450;-65
2022/08/06 00:04:57;;;;;;;0.43;0.43;;;;;;;;;;5047681;28;20427;-66
2022/08/06 00:07:25;;;;;;;0.40;0.40;;;;;;;;;;5032217;28;20510;-65
2022/08/06 00:09:54;;;;;;;0.40;0.40;;;;;;;;;;5038080;28;20464;-66
2022/08/06 00:12:28;;;;;;;0.50;0.50;;;;;;;;;;5022770;28;20836;-66
2022/08/06 00:14:57;;;;;;;0.43;0.43;;;;;;;;;;5020449;28;20520;-66
2022/08/06 00:17:25;;;;;;;0.38;0.38;;;;;;;;;;5022683;28;20858;-65
2022/08/06 00:19:58;;;;;;;0.32;0.32;;;;;;;;;;5014195;28;20436;-65
2022/08/06 00:22:26;;;;;;;0.40;0.40;;;14.20;99.90;;;;;;5025337;28;20524;-66
2022/08/06 00:24:55;;;;;;;0.30;0.30;;;13.80;99.90;;;;;;5034703;28;20461;-65
2022/08/06 00:27:24;;;;;;;0.43;0.43;;;13.80;99.90;;;;;;5022080;28;20436;-65
2022/08/06 00:30:05;;;;;;;0.40;0.40;;;13.70;99.90;;;;;;5024265;28;20441;-66
2022/08/06 00:32:43;;;;;;;0.40;0.40;;;13.60;99.90;;;;;;5031786;28;20535;-65
2022/08/06 00:35:12;;;;;;;0.40;0.40;;;13.60;99.90;;;;;;5030446;28;20469;-65
2022/08/06 00:37:41;;;;;;;0.43;0.43;;;13.50;99.90;;;;;;5040122;28;20882;-65
2022/08/06 00:40:29;;;;;;;0.50;0.50;;;13.40;99.90;;;;;;5028401;28;20945;-65
2022/08/06 00:43:02;;;;;;;0.40;0.40;;;13.30;99.90;;;;;;5026763;28;20502;-65
2022/08/06 00:45:35;;;;;;;0.40;0.32;;;13.30;99.90;;;;;;5030561;28;20794;-65
2022/08/06 00:48:08;;;;;;;0.40;0.40;;;13.30;99.90;;;;;;5044896;28;20490;-65
2022/08/06 00:50:55;;;;;;;0.50;0.50;;;13.20;99.90;;;;;;5038825;28;20409;-65
2022/08/06 00:53:21;;;;;;;0.43;0.43;;;13.20;99.90;;;;;;5039045;28;20430;-65
2022/08/06 00:55:49;;;;;;;0.30;0.30;;;13.10;99.90;;;;;;5034118;28;20436;-66
2022/08/06 00:58:27;;;;;;;0.40;0.40;;;13.10;99.90;;;;;;5024026;28;20983;-65
2022/08/06 01:01:05;;;;;;;0.50;0.50;;;13.10;99.90;;;;;;5030414;28;20500;-65
2022/08/06 01:03:42;;;;;;;0.32;0.32;;;13.00;99.90;;;;;;5032717;28;20423;-65
2022/08/06 01:06:21;;;;;;;0.70;0.50;;;13.00;99.90;;;;;;5026889;28;21168;-65
2022/08/06 01:09:09;;;;;;;0.50;0.50;;;13.10;99.90;;;;;;5030754;28;20413;-65
2022/08/06 01:11:42;;;;;;;0.40;0.40;;;13.10;99.90;;;;;;5028191;28;20514;-64
2022/08/06 01:14:10;;;;;;;0.30;0.30;;;13.10;99.90;;;;;;5037014;28;20473;-65
2022/08/06 01:17:05;;;;;;;0.30;0.30;;;13.10;99.90;;;;;;5035508;28;20473;-65
2022/08/06 01:19:59;;;;;;;0.33;0.33;;;13.00;99.90;;;;;;5051215;28;20435;-65
2022/08/06 01:23:17;;;;;;;0.30;0.30;;;13.00;99.90;;;;;;5031898;28;20427;-65
2022/08/06 01:26:01;;;;;;;0.30;0.30;;;13.00;99.90;;;;;;5038195;28;20426;-65
2022/08/06 01:28:46;;;;;;;0.30;0.30;;;13.00;99.90;;;;;;5019330;28;20439;-64
2022/08/06 01:31:26;;;;;;;0.40;0.40;;;13.00;99.90;;;;;;5029143;28;20458;-64
2022/08/06 01:34:03;;;;;;;0.40;0.40;;;13.00;99.90;;;;;;5012500;28;20424;-65
2022/08/06 01:36:39;;;;;;;1.40;0.50;;;13.10;99.90;;;;;;5037529;28;20944;-65
2022/08/06 01:39:17;;;;;;;0.30;0.30;;;13.20;99.90;;;;;;5033771;28;20445;-64
2022/08/06 01:42:05;;;;;;;0.45;0.40;;;13.30;99.90;;;;;;5020365;28;20412;-64
2022/08/06 01:44:38;;;;;;;0.30;0.30;;;13.50;99.90;;;;;;5036228;28;20506;-64
2022/08/06 01:47:14;;;;;;;0.60;0.40;;;13.70;99.90;;;;;;5034889;28;20458;-64
2022/08/06 01:49:47;;;;;;;0.40;0.40;;;13.70;99.90;;;;;;5018627;28;21125;-64
2022/08/06 01:52:32;;;;;;;0.50;0.50;;;13.60;99.90;;;;;;5036214;28;20439;-64
2022/08/06 01:55:01;;;;;;;0.40;0.40;;;13.60;99.90;;;;;;5039138;28;21030;-64
2022/08/06 01:57:30;;;;;;;0.30;0.30;;;13.50;99.90;;;;;;5028952;28;20931;-64
2022/08/06 02:00:18;;;;;;;0.35;0.35;;;13.50;99.90;;;;;;5035088;28;20776;-64
2022/08/06 02:02:54;;;;;;;0.43;0.43;;;13.50;99.90;;;;;;5028328;28;20427;-65
2022/08/06 02:05:24;;;;;;;0.30;0.30;;;13.40;99.90;;;;;;5015904;28;20490;-65
2022/08/06 02:08:00;;;;;;;0.22;0.22;;;13.30;99.90;;;;;;5023937;28;20543;-65
2022/08/06 02:10:50;;;;;;;0.30;0.30;;;13.30;99.90;;;;;;5019838;28;20419;-65
2022/08/06 02:13:19;;;;;;;1.00;0.60;;;13.30;99.90;;;;;;5014714;28;20864;-65
2022/08/06 02:15:47;;;;;;;0.30;0.30;;;13.30;99.90;;;;;;5027744;28;20431;-67
2022/08/06 02:18:29;;;;;;;0.30;0.30;;;13.30;99.90;;;;;;5027386;28;20488;-65
2022/08/06 02:21:08;;;;;;;0.30;0.30;;;13.30;99.90;;;;;;5019886;28;20497;-65
2022/08/06 02:23:56;;;;;;;0.30;0.30;;;13.20;99.90;;;;;;5047998;28;20420;-65
2022/08/06 02:26:26;;;;;;;0.30;0.30;;;13.10;99.90;;;;;;5033758;28;20439;-65
2022/08/06 02:29:01;;;;;;;0.40;0.40;;;13.10;99.90;;;;;;5017866;28;20501;-65
2022/08/06 02:31:28;;;;;;;0.40;0.40;;;13.10;99.90;;;;;;5021937;28;20925;-65
2022/08/06 02:34:13;;;;;;;0.40;0.40;;;13.20;99.90;;;;;;5022120;28;20525;-65
2022/08/06 02:36:46;;;;;;;0.30;0.30;;;13.20;99.90;;;;;;5030188;28;20525;-65
2022/08/06 02:39:25;;;;;;;0.47;0.47;;;13.10;99.90;;;;;;5040209;28;20490;-64
2022/08/06 02:42:35;;;;;;;0.40;0.40;;;13.10;99.90;;;;;;5020996;28;20437;-65
2022/08/06 02:45:21;;;;;;;1.20;0.50;;;13.30;99.90;;;;;;5015280;28;21130;-65
2022/08/06 02:47:50;;;;;;;1.20;0.30;;;13.40;99.90;;;;;;5010381;28;20532;-64
2022/08/06 02:50:35;;;;;;;0.38;0.38;;;13.50;99.90;;;;;;5018479;28;20439;-64
2022/08/06 02:53:13;;;;;;;0.20;0.20;;;13.50;99.90;;;;;;5018180;28;20432;-65
2022/08/06 02:55:55;;;;;;;0.30;0.30;;;13.60;99.90;;;;;;5013338;28;20957;-65
2022/08/06 02:58:47;;;;;;;0.30;0.25;;;13.60;99.90;;;;;;5011853;28;20432;-65
2022/08/06 03:01:35;;;;;;;0.40;0.40;;;13.60;99.90;;;;;;5010341;28;20804;-65
2022/08/06 03:04:11;;;;;;;0.35;0.35;;;13.50;99.90;;;;;;5027894;28;20623;-65
2022/08/06 03:06:45;;;;;;;0.32;0.32;;;13.40;99.90;;;;;;5028894;28;20426;-65
2022/08/06 03:09:14;;;;;;;0.20;0.20;;;13.30;99.90;;;;;;5029680;28;20714;-65
2022/08/06 03:11:44;;;;;;;0.35;0.35;;;13.30;99.90;;;;;;5012331;28;20439;-65
2022/08/06 03:14:15;;;;;;;0.30;0.30;;;13.10;99.90;;;;;;5024169;28;20429;-65
2022/08/06 03:17:03;;;;;;;0.30;0.30;;;13.00;99.90;;;;;;5026589;28;20429;-65
2022/08/06 03:19:31;;;;;;;0.25;0.25;;;12.90;99.90;;;;;;5041027;28;20520;-65
2022/08/06 03:22:19;;;;;;;0.30;0.30;;;;;;;;;;5024867;28;20930;-65
2022/08/06 03:25:05;;;;;;;0.30;0.30;;;;;;;;;;5022098;28;20483;-65
2022/08/06 03:27:36;;;;;;;0.30;0.30;;;;;;;;;;5025036;28;20427;-65
2022/08/06 03:30:18;;;;;;;0.30;0.30;;;;;;;;;;5015588;28;20430;-65
2022/08/06 03:32:59;;;;;;;0.50;0.43;;;;;;;;;;5035816;28;20899;-64
2022/08/06 03:35:35;;;;;;;0.40;0.40;;;;;;;;;;5037916;28;20844;-65
2022/08/06 03:38:17;;;;;;;0.40;0.40;;;;;;;;;;5025029;28;20432;-65
2022/08/06 03:40:47;;;;;;;0.45;0.45;;;;;;;;;;5024139;28;20434;-65
2022/08/06 03:43:15;;;;;;;0.40;0.40;;;;;;;;;;5026689;28;20432;-65
2022/08/06 03:46:04;;;;;;;0.30;0.30;;;;;;;;;;5021951;28;20911;-65
2022/08/06 03:48:40;;;;;;;0.32;0.32;;;;;;;;;;5029226;28;20462;-65
2022/08/06 03:51:12;;;;;;;0.30;0.30;;;;;;;;;;5022305;28;20434;-65
2022/08/06 03:53:41;;;;;;;0.30;0.30;;;;;;;;;;5030312;28;20450;-65
2022/08/06 03:56:15;;;;;;;0.70;0.40;;;;;;;;;;5022065;28;20809;-65
2022/08/06 03:58:44;;;;;;;0.20;0.20;;;;;;;;;;5030775;28;20917;-64
2022/08/06 04:01:20;;;;;;;0.45;0.45;;;;;;;;;;5031349;28;20430;-65
2022/08/06 04:03:49;;;;;;;0.70;0.50;;;;;;;;;;5028172;28;20453;-65
2022/08/06 04:06:21;;;;;;;0.40;0.40;;;;;;;;;;5020147;28;20962;-65
2022/08/06 04:08:48;;;;;;;0.30;0.30;;;;;;;;;;5012506;28;20424;-65
2022/08/06 04:11:17;;;;;;;0.30;0.30;;;;;;;;;;5013663;28;20515;-65
2022/08/06 04:14:04;;;;;;;0.20;0.20;;;;;;;;;;5020844;28;20510;-65
2022/08/06 04:16:35;;;;;;;0.45;0.45;;;;;;;;;;5027100;28;20434;-65
2022/08/06 04:19:05;;;;;;;0.40;0.30;;;;;;;;;;5047923;28;20553;-65
2022/08/06 04:21:35;;;;;;;0.40;0.40;;;;;;;;;;5028509;28;20437;-65
2022/08/06 04:24:22;;;;;;;1.90;0.52;;;;;;;;;;5012493;28;20428;-66
2022/08/06 04:27:02;;;;;;;0.40;0.40;;;;;;;;;;5015025;28;20790;-65
2022/08/06 04:29:36;;;;;;;0.50;0.50;;;;;;;;;;5017750;28;20442;-65
2022/08/06 04:32:24;;;;;;;0.30;0.30;;;12.80;99.90;;;;;;5024287;28;20425;-65
2022/08/06 04:34:58;;;;;;;0.43;0.43;;;;;;;;;;5019329;28;20788;-65
2022/08/06 04:37:46;;;;;;;0.50;0.50;;;;;;;;;;5039020;28;20453;-65
2022/08/06 04:40:17;;;;;;;0.60;0.60;;;;;;;;;;5028642;28;20428;-65
2022/08/06 04:43:00;;;;;;;0.40;0.40;;;;;;;;;;5012209;28;20874;-65
2022/08/06 04:45:28;;;;;;;0.80;0.50;;;;;;;;;;5031175;28;20541;-65
2022/08/06 04:48:16;;;;;;;0.45;0.45;;;;;;;;;;5020170;28;20433;-65
2022/08/06 04:50:47;;;;;;;0.57;0.47;;;;;;;;;;5027796;28;20437;-65
2022/08/06 04:53:15;;;;;;;0.60;0.60;;;;;;;;;;5004724;28;20526;-65
2022/08/06 04:56:03;;;;;;;0.50;0.50;;;;;;;;;;5022820;28;20437;-65
2022/08/06 04:58:30;;;;;;;0.40;0.40;;;;;;;;;;5021261;28;20492;-65
2022/08/06 05:01:01;;;;;;;1.20;0.30;;;;;;;;;;5020599;28;21445;-65
2022/08/06 05:03:37;;;;;;;0.30;0.30;;;;;;;;;;5008620;28;21012;-66
2022/08/06 05:06:43;;;;;;;0.40;0.40;;;;;;;;;;5011124;28;20435;-65
2022/08/06 05:09:41;;;;;;;0.30;0.30;;;;;;;;;;5021617;28;21022;-65
2022/08/06 05:12:23;;;;;;;1.90;0.30;;;;;;;;;;5022993;28;20979;-65
2022/08/06 05:14:54;;;;;;;0.40;0.40;;;;;;;;;;5021823;28;21153;-65
2022/08/06 05:17:24;;;;;;;0.40;0.40;;;;;;;;;;5018632;28;20528;-65
2022/08/06 05:20:03;;;;;;;0.30;0.30;;;;;;;;;;5019163;28;20506;-65
2022/08/06 05:22:32;;;;;;;0.40;0.40;;;;;;;;;;5018778;28;21433;-66
2022/08/06 05:25:19;;;;;;;0.40;0.32;;;11.80;99.90;;;;;;5024614;28;20427;-66
2022/08/06 05:27:54;;;;;;;0.30;0.30;;;14.70;99.90;;;;;;5025802;28;21149;-61
2022/08/06 05:30:49;;;;;;;0.20;0.20;;;15.70;99.90;;;;;;5015525;28;20439;-68
2022/08/06 05:33:30;;;;;;;0.30;0.30;;;16.70;99.90;;;;;;5009097;28;20930;-67
2022/08/06 05:35:59;;;;;;;0.20;0.20;;;17.40;99.90;;;;;;5019280;28;20441;-66
2022/08/06 05:38:39;;;;;;;0.20;0.20;;;;;;;;;;5016504;28;20492;-67
2022/08/06 05:41:26;;;;;;;0.20;0.20;;;18.20;99.90;;;;;;5009606;28;20566;-67
2022/08/06 05:43:58;;;;;;;0.80;0.30;;;19.60;99.90;;;;;;5020554;28;21186;-66
2022/08/06 05:46:40;;;;;;;0.20;0.20;;;19.90;99.90;;;;;;5024639;28;20525;-66
2022/08/06 05:49:12;;;;;;;0.30;0.30;;;20.00;99.90;;;;;;5021286;28;20432;-66
2022/08/06 05:52:19;;;;;;;0.20;0.20;;;20.20;99.90;;;;;;5028472;28;20506;-67
2022/08/06 05:55:06;;;;;;;0.20;0.20;;;20.50;99.90;;;;;;5020683;28;20533;-67
2022/08/06 05:57:49;;;;;;;0.20;0.20;;;20.70;99.90;;;;;;5033298;28;20470;-67
2022/08/06 06:00:25;;;;;;;0.20;0.20;;;20.60;99.90;;;;;;5028539;28;20491;-67
2022/08/06 06:03:15;;;;;;;0.30;0.30;;;21.30;99.90;;;;;;5026254;28;20508;-68
2022/08/06 06:05:57;;;;;;;0.20;0.20;;;21.60;99.90;;;;;;5028052;28;20489;-67
2022/08/06 06:08:36;;;;;;;0.20;0.20;;;21.90;99.90;;;;;;5030862;28;20470;-67
2022/08/06 06:11:22;;;;;;;0.40;0.30;;;21.90;99.90;;;;;;5018581;28;20444;-66
2022/08/06 06:14:36;;;;;;;2.00;0.30;;;22.00;99.90;;;;;;5018587;28;20423;-67
2022/08/06 06:17:31;;;;;;;0.20;0.20;;;22.40;99.90;;;;;;5010155;28;20458;-66
2022/08/06 06:20:32;;;;;;;0.28;0.28;;;22.10;99.90;;;;;;5035748;28;20438;-66
2022/08/06 06:23:26;;;;;;;0.30;0.30;;;22.00;99.90;;;;;;5017226;28;20828;-67
2022/08/06 06:26:32;;;;;;;0.40;0.30;;;22.50;99.90;;;;;;5032621;28;20447;-66
2022/08/06 06:29:26;;;;;;;0.20;0.20;;;22.60;99.90;;;;;;5022130;28;20432;-66
2022/08/06 06:32:16;;;;;;;0.20;0.20;;;22.40;99.90;;;;;;5026982;28;20514;-65
2022/08/06 06:35:29;;;;;;;0.10;0.10;;;22.60;99.90;;;;;;5052158;28;20436;-66
2022/08/06 06:38:22;;;;;;;0.20;0.20;;;22.60;99.90;;;;;;5017815;28;20535;-66
2022/08/06 06:41:29;;;;;;;0.22;0.22;;;22.60;99.90;;;;;;5022586;28;21802;-66
2022/08/06 06:44:21;;;;;;;0.20;0.20;;;22.10;99.90;;;;;;5033602;28;20444;-66
2022/08/06 06:47:21;;;;;;;0.20;0.20;;;22.10;99.90;;;;;;5023648;28;20415;-66
2022/08/06 06:50:15;;;;;;;0.10;0.10;;;22.10;99.90;;;;;;5018181;28;20435;-65
2022/08/06 06:52:48;;;;;;;1.20;0.30;;;22.50;99.90;;;;;;5028373;28;20920;-66
2022/08/06 06:55:30;;;;;;;0.20;0.20;;;22.70;99.90;;;;;;5022173;28;20441;-66
2022/08/06 06:58:33;;;;;;;0.20;0.20;;;22.90;99.90;;;;;;5024974;28;20406;-67
2022/08/06 07:01:05;;;;;;;0.20;0.20;;;23.30;99.90;;;;;;5024840;28;20514;-66
2022/08/06 07:03:54;;;;;;;0.60;0.40;;;23.30;99.90;;;;;;5035596;28;20425;-66
2022/08/06 07:06:22;;;;;;;0.20;0.20;;;23.50;99.90;;;;;;5020419;28;20432;-66
2022/08/06 07:09:13;;;;;;;0.30;0.30;;;23.90;99.90;;;;;;5025440;28;20488;-66
2022/08/06 07:12:02;;;;;;;0.30;0.20;;;23.60;99.90;;;;;;5017883;28;20583;-66
2022/08/06 07:14:32;;;;;;;0.27;0.20;;;23.20;99.90;;;;;;5026613;28;20435;-66
2022/08/06 07:17:01;;;;;;;0.20;0.20;;;22.80;99.90;;;;;;5023140;28;20484;-66
2022/08/06 07:19:51;;;;;;;0.20;0.20;;;22.80;99.90;;;;;;5023759;28;20427;-65
2022/08/06 07:22:22;;;;;;;0.20;0.20;;;23.20;99.90;;;;;;5023793;28;20975;-65
2022/08/06 07:24:58;;;;;;;0.20;0.20;;;23.70;99.90;;;;;;5027166;28;20496;-65
2022/08/06 07:27:30;;;;;;;0.20;0.20;;;23.80;99.90;;;;;;5026167;28;20434;-67
2022/08/06 07:30:13;;;;;;;0.20;0.20;;;24.00;99.90;;;;;;5039381;28;20435;-66
2022/08/06 07:32:43;;;;;;;0.20;0.20;;;23.70;99.90;;;;;;5039101;28;20533;-65
2022/08/06 07:35:21;;;;;;;0.30;0.30;;;23.80;99.90;;;;;;5038584;28;20432;-66
2022/08/06 07:37:55;;;;;;;0.20;0.20;;;24.00;99.90;;;;;;5033949;28;20461;-66
2022/08/06 07:40:52;;;;;;;0.30;0.30;;;24.10;99.80;;;;;;5013666;28;20934;-66
2022/08/06 07:43:31;;;;;;;0.20;0.20;;;24.50;99.80;;;;;;5018922;28;20431;-66
2022/08/06 07:46:04;;;;;;;0.30;0.30;;;24.70;99.40;;;;;;5025701;28;20468;-66
2022/08/06 07:48:38;;;;;;;0.20;0.20;;;25.00;99.20;;;;;;5014424;28;20491;-65
2022/08/06 07:51:06;;;;;;;0.20;0.20;;;25.30;99.00;;;;;;5028667;28;21141;-66
2022/08/06 07:53:35;;;;;;;0.30;0.30;;;25.00;98.20;;;;;;5023904;28;20527;-66
2022/08/06 07:56:25;;;;;;;0.20;0.20;;;25.30;98.10;;;;;;5032045;28;20523;-67
2022/08/06 07:58:54;;;;;;;0.20;0.20;;;25.30;97.50;;;;;;5036724;28;20473;-66
2022/08/06 08:01:25;;;;;;;0.20;0.20;;;25.50;98.80;;;;;;5016999;28;20433;-66
2022/08/06 08:07:16;;;;;;;0.20;0.20;;;25.30;96.70;;;;;;5021800;28;20503;-66
2022/08/06 08:09:46;;;;;;;0.20;0.20;;;25.10;96.40;;;;;;5032134;28;20453;-64
2022/08/06 08:12:32;;;;;;;0.20;0.20;;;25.20;96.00;;;;;;5044232;28;20460;-66
2022/08/06 08:15:07;;;;;;;0.30;0.30;;;25.50;95.20;;;;;;5045613;28;20480;-66
2022/08/06 08:17:45;;;;;;;0.20;0.20;;;25.70;95.00;;;;;;5028287;28;21043;-65
2022/08/06 08:20:28;;;;;;;0.30;0.30;;;25.10;94.40;;;;;;5028564;28;20464;-66
2022/08/06 08:23:06;;;;;;;0.50;0.20;;;25.00;95.30;;;;;;5019343;28;21653;-66
2022/08/06 08:25:57;;;;;;;0.20;0.20;;;25.10;95.40;;;;;;5040650;28;20936;-66
2022/08/06 08:28:24;;;;;;;0.20;0.20;;;25.10;96.30;;;;;;5025786;28;20431;-65
2022/08/06 08:30:51;;;;;;;0.40;0.33;;;25.30;94.20;;;;;;5032253;28;20430;-66
2022/08/06 08:33:19;;;;;;;0.20;0.20;;;25.20;95.20;;;;;;5015917;28;20440;-67
2022/08/06 08:35:47;;;;;;;0.20;0.20;;;24.90;94.80;;;;;;5018168;28;20437;-65
2022/08/06 08:38:31;;;;;;;0.20;0.20;;;25.00;94.90;;;;;;5018006;28;20441;-65
2022/08/06 08:41:03;;;;;;;0.20;0.20;;;24.60;95.00;;;;;;5022934;28;20435;-65
2022/08/06 08:43:36;;;;;;;0.30;0.23;;;24.60;95.30;;;;;;5039008;28;20435;-64
2022/08/06 08:46:26;;;;;;;0.20;0.20;;;24.10;95.00;;;;;;5027551;28;20427;-65
2022/08/06 08:49:00;;;;;;;0.20;0.20;;;23.50;95.30;;;;;;5013332;28;20438;-66
2022/08/06 08:51:28;;;;;;;0.30;0.30;;;24.20;95.40;;;;;;5027443;28;20440;-65
2022/08/06 08:54:07;;;;;;;0.20;0.20;;;24.60;95.10;;;;;;5030701;28;20455;-66
2022/08/06 08:56:38;;;;;;;0.20;0.20;;;24.90;95.20;;;;;;5025187;28;20517;-65
2022/08/06 08:59:27;;;;;;;0.15;0.15;;;25.20;95.00;;;;;;5016713;28;20411;-65
2022/08/06 09:02:14;;;;;;;0.20;0.20;;;25.00;94.00;;;;;;5033389;28;20429;-65
2022/08/06 09:04:45;;;;;;;0.52;0.20;;;24.50;94.50;;;;;;5035873;28;20437;-65
2022/08/06 09:07:12;;;;;;;0.20;0.20;;;24.40;94.10;;;;;;5039724;28;20929;-64
2022/08/06 09:09:51;;;;;;;0.20;0.20;;;24.30;94.40;;;;;;5029489;28;20437;-65
2022/08/06 09:12:26;;;;;;;0.25;0.25;;;24.30;95.00;;;;;;5040015;28;20485;-64
2022/08/06 09:15:02;;;;;;;0.10;0.10;;;24.20;94.10;;;;;;5018248;28;20468;-65
2022/08/06 09:17:30;;;;;;;0.30;0.20;;;23.80;94.30;;;;;;5028882;28;20481;-66
2022/08/06 09:20:17;;;;;;;0.20;0.20;;;23.30;94.10;;;;;;5032971;28;20427;-65
2022/08/06 09:22:50;;;;;;;0.20;0.20;;;23.30;94.60;;;;;;5039349;28;20425;-65
2022/08/06 09:25:42;;;;;;;0.20;0.20;;;23.80;95.20;;;;;;5030742;28;20425;-64
2022/08/06 09:28:31;;;;;;;0.30;0.30;;;24.20;95.30;;;;;;5028234;28;20431;-64
2022/08/06 09:31:10;;;;;;;0.20;0.20;;;24.10;94.60;;;;;;5030036;28;20893;-65
2022/08/06 09:33:59;;;;;;;0.20;0.20;;;24.00;94.50;;;;;;5024937;28;21502;-65
2022/08/06 09:36:48;;;;;;;0.20;0.20;;;23.90;95.00;;;;;;5015281;28;20418;-65
2022/08/06 09:39:31;;;;;;;0.20;0.20;;;24.50;94.40;;;;;;5027829;28;20488;-65
2022/08/06 09:42:42;;;;;;;0.20;0.20;;;24.20;93.60;;;;;;5021771;28;20424;-65
2022/08/06 09:45:12;;;;;;;0.40;0.30;;;24.10;94.50;;;;;;5026314;28;20488;-64
2022/08/06 09:47:45;;;;;;;0.20;0.20;;;24.30;94.30;;;;;;5030033;28;20618;-65
2022/08/06 09:50:44;;;;;;;0.20;0.20;;;24.60;94.00;;;;;;5026837;28;20466;-64
2022/08/06 09:53:22;;;;;;;0.20;0.20;;;24.90;94.10;;;;;;5030296;28;20431;-64
2022/08/06 09:55:51;;;;;;;0.20;0.20;;;25.10;93.30;;;;;;5015915;28;20429;-64
2022/08/06 09:58:35;;;;;;;0.20;0.20;;;24.90;93.40;;;;;;5045414;28;20479;-65
2022/08/06 10:01:14;;;;;;;0.27;0.27;;;24.90;94.10;;;;;;5036682;28;20437;-65
2022/08/06 10:03:56;;;;;;;0.20;0.20;;;25.00;93.50;;;;;;5028578;28;20439;-65
2022/08/06 10:06:32;;;;;;;0.20;0.20;;;24.90;92.80;;;;;;5010754;28;20525;-65
2022/08/06 10:09:11;;;;;;;0.30;0.30;;;24.80;92.90;;;;;;5011350;28;20509;-65
2022/08/06 10:11:58;;;;;;;0.90;0.20;;;24.60;93.70;;;;;;5018543;28;20426;-66
2022/08/06 10:14:27;;;;;;;0.20;0.20;;;24.80;94.10;;;;;;5016687;28;20773;-65
2022/08/06 10:17:08;;;;;;;0.40;0.30;;;25.00;93.60;;;;;;5031108;28;20435;-65
2022/08/06 10:20:04;;;;;;;0.20;0.20;;;24.50;93.60;;;;;;5023474;28;20907;-65
2022/08/06 10:22:36;;;;;;;0.30;0.30;;;25.00;93.20;;;;;;5025178;28;20853;-64
2022/08/06 10:25:07;;;;;;;0.17;0.17;;;25.30;93.30;;;;;;5028070;28;20521;-65
2022/08/06 10:27:39;;;;;;;0.57;0.30;;;25.80;92.90;;;;;;5021131;28;20441;-65
2022/08/06 10:30:09;;;;;;;0.20;0.20;;;26.00;91.80;;;;;;5023153;28;20421;-65
2022/08/06 10:32:41;;;;;;;0.30;0.20;;;26.10;90.90;;;;;;5029083;28;20431;-65
2022/08/06 10:35:11;;;;;;;0.47;0.30;;;25.90;92.00;;;;;;5027327;28;20439;-65
2022/08/06 10:37:43;;;;;;;0.30;0.30;;;26.00;91.80;;;;;;5030138;28;20977;-65
2022/08/06 10:40:25;;;;;;;0.20;0.20;;;26.30;91.30;;;;;;5030090;28;20905;-65
2022/08/06 10:43:03;;;;;;;0.20;0.20;;;25.90;91.00;;;;;;5027527;28;20423;-66
2022/08/06 10:45:33;;;;;;;0.20;0.20;;;25.80;91.20;;;;;;5025608;28;20431;-64
2022/08/06 10:48:18;;;;;;;0.20;0.20;;;25.30;90.60;;;;;;5015051;28;20534;-65
2022/08/06 10:51:07;;;;;;;0.20;0.20;;;25.70;92.00;;;;;;5024537;28;20425;-65
2022/08/06 10:53:37;;;;;;;0.20;0.20;;;25.90;90.30;;;;;;5029148;28;20446;-65
2022/08/06 10:56:26;;;;;;;0.20;0.20;;;26.00;90.50;;;;;;5015697;28;20432;-64
2022/08/06 10:59:02;;;;;;;1.37;0.30;;;26.20;89.40;;;;;;5010434;28;20791;-65
2022/08/06 11:01:45;;;;;;;0.28;0.28;;;26.10;88.10;;;;;;5020774;28;20467;-65
2022/08/06 11:04:32;;;;;;;0.40;0.30;;;26.00;90.10;;;;;;5027462;28;20437;-65
2022/08/06 11:07:14;;;;;;;0.30;0.30;;;26.00;90.40;;;;;;5024801;28;20429;-65
2022/08/06 11:10:28;;;;;;;0.30;0.20;;;25.60;90.90;;;;;;5018460;28;20415;-65
2022/08/06 11:13:22;;;;;;;0.20;0.20;;;25.30;91.40;;;;;;5007608;28;21747;-65
2022/08/06 11:16:03;;;;;;;0.45;0.30;;;25.30;91.10;;;;;;5019051;28;20517;-65
2022/08/06 11:18:32;;;;;;;0.20;0.20;;;25.30;91.40;;;;;;5018281;28;20446;-65
2022/08/06 11:21:01;;;;;;;0.20;0.20;;;25.80;91.10;;;;;;5021247;28;20433;-65
2022/08/06 11:23:30;;;;;;;0.10;0.10;;;26.20;89.30;;;;;;5023884;28;20439;-66
2022/08/06 11:26:33;;;;;;;0.20;0.20;;;26.00;89.80;;;;;;5018646;28;20431;-65
2022/08/06 11:29:15;;;;;;;0.30;0.30;;;25.90;90.60;;;;;;5022704;28;20502;-63
2022/08/06 11:31:47;;;;;;;0.20;0.20;;;26.10;90.50;;;;;;5028055;28;20438;-66
2022/08/06 11:34:41;;;;;;;0.20;0.20;;;26.10;88.80;;;;;;5030862;28;20447;-63
2022/08/06 11:37:44;;;;;;;0.20;0.20;;;25.80;88.90;;;;;;5025038;28;20471;-64
2022/08/06 11:40:47;;;;;;;0.17;0.17;;;25.70;90.80;;;;;;5019008;28;20426;-63
2022/08/06 11:43:40;;;;;;;0.20;0.20;;;26.00;89.20;;;;;;5024008;28;20508;-63
2022/08/06 11:46:33;;;;;;;0.10;0.10;;;26.50;89.40;;;;;;5014890;28;20422;-64
2022/08/06 11:49:24;;;;;;;0.10;0.10;;;26.60;84.40;;;;;;5031259;28;20438;-64
2022/08/06 11:51:58;;;;;;;0.10;0.10;;;26.30;85.00;;;;;;5018417;28;20563;-64
2022/08/06 11:54:55;;;;;;;0.20;0.20;;;26.20;85.80;;;;;;5018185;28;20877;-63
2022/08/06 11:57:23;;;;;;;0.20;0.20;;;25.70;86.50;;;;;;5027634;28;20432;-63
2022/08/06 12:00:14;;;;;;;0.20;0.20;;;25.60;85.80;;;;;;5032899;28;20432;-64
2022/08/06 12:02:45;;;;;;;0.20;0.20;;;25.60;85.20;;;;;;5022564;28;20491;-63
2022/08/06 12:05:15;;;;;;;0.20;0.20;;;25.40;86.10;;;;;;5020352;28;20466;-63
2022/08/06 12:07:45;;;;;;;0.20;0.20;;;25.70;87.10;;;;;;5023497;28;20434;-63
2022/08/06 12:10:18;;;;;;;0.40;0.30;;;26.20;86.20;;;;;;5018778;28;20434;-63
2022/08/06 12:12:55;;;;;;;0.50;0.28;;;26.20;84.60;;;;;;5011194;28;20522;-63
2022/08/06 12:15:26;;;;;;;0.20;0.20;;;26.10;85.30;;;;;;5019515;28;20433;-63
2022/08/06 12:18:13;;;;;;;0.20;0.20;;;25.90;84.40;;;;;;5018280;28;21049;-64
2022/08/06 12:20:53;;;;;;;0.20;0.20;;;25.50;84.70;;;;;;5028239;28;20466;-63
2022/08/06 12:23:25;;;;;;;0.20;0.20;;;25.20;85.60;;;;;;5019637;28;20836;-64
2022/08/06 12:26:12;;;;;;;0.20;0.20;;;25.70;84.70;;;;;;5030275;28;20445;-63
2022/08/06 12:28:41;;;;;;;0.17;0.17;;;25.70;83.70;;;;;;5025651;28;20427;-63
2022/08/06 12:31:10;;;;;;;0.43;0.17;;;26.00;83.90;;;;;;5016758;28;20747;-63
2022/08/06 12:33:57;;;;;;;0.20;0.20;;;25.70;82.10;;;;;;5024741;28;20515;-63
2022/08/06 12:36:29;;;;;;;0.20;0.20;;;25.40;83.30;;;;;;5019387;28;20427;-63
2022/08/06 12:39:03;;;;;;;0.10;0.10;;;25.40;81.70;;;;;;5023605;28;20504;-63
2022/08/06 12:41:40;;;;;;;0.20;0.20;;;25.70;82.20;;;;;;5015982;28;21030;-64
2022/08/06 12:44:14;;;;;;;0.30;0.30;;;26.00;80.70;;;;;;5019263;28;20443;-63
2022/08/06 12:47:12;;;;;;;0.20;0.20;;;26.00;82.80;;;;;;5021577;28;20434;-63
2022/08/06 12:49:39;;;;;;;0.13;0.13;;;26.30;83.10;;;;;;5025768;28;20948;-63
2022/08/06 12:52:17;;;;;;;0.20;0.20;;;26.50;83.00;;;;;;5021028;28;20439;-64
2022/08/06 12:54:45;;;;;;;0.20;0.20;;;26.20;83.00;;;;;;5024178;28;20497;-64
2022/08/06 12:57:27;;;;;;;0.17;0.17;;;26.30;81.50;;;;;;5024962;28;20430;-61
2022/08/06 13:00:15;;;;;;;0.10;0.10;;;26.30;81.20;;;;;;5015947;28;20418;-61
2022/08/06 13:02:42;;;;;;;0.40;0.40;;;26.10;81.10;;;;;;5028398;28;20427;-61
2022/08/06 13:05:13;;;;;;;0.20;0.20;;;25.40;81.20;;;;;;5023375;28;20433;-61
2022/08/06 13:07:41;;;;;;;0.15;0.15;;;25.40;79.60;;;;;;5031676;28;20558;-61
2022/08/06 13:10:10;;;;;;;0.30;0.30;;;25.90;80.80;;;;;;5024104;28;20437;-61
2022/08/06 13:13:09;;;;;;;0.45;0.40;;;26.40;80.40;;;;;;5027256;28;20423;-61
2022/08/06 13:16:09;;;;;;;0.20;0.20;;;26.70;78.70;;;;;;5051139;28;20429;-60
2022/08/06 13:18:36;;;;;;;0.25;0.25;;;26.40;77.70;;;;;;5027035;28;20515;-61
2022/08/06 13:21:22;;;;;;;0.20;0.20;;;26.60;76.20;;;;;;5032735;28;20920;-61
2022/08/06 13:24:10;;;;;;;0.30;0.20;;;27.10;76.20;;;;;;5028764;28;20504;-61
2022/08/06 13:26:48;;;;;;;0.20;0.20;;;27.60;77.50;;;;;;5025345;28;20980;-61
2022/08/06 13:29:24;;;;;;;0.30;0.30;;;28.00;78.30;;;;;;5032228;28;21051;-61
2022/08/06 13:32:11;;;;;;;0.20;0.20;;;28.10;76.40;;;;;;5021148;28;20430;-62
2022/08/06 13:35:00;;;;;;;0.20;0.20;;;27.70;76.30;;;;;;5025866;28;20425;-61
2022/08/06 13:37:50;;;;;;;0.20;0.20;;;27.80;74.00;;;;;;5016490;28;20436;-61
2022/08/06 13:40:45;;;;;;;0.25;0.22;;;27.60;75.00;;;;;;5021483;28;20423;-61
2022/08/06 13:43:56;;;;;;;0.70;0.32;;;28.20;74.80;;;;;;5027857;28;20437;-61
2022/08/06 13:46:26;;;;;;;0.20;0.20;;;28.40;73.40;;;;;;5024557;28;20440;-61
2022/08/06 13:48:58;;;;;;;0.20;0.20;;;28.50;75.10;;;;;;5021386;28;20431;-61
2022/08/06 13:51:29;;;;;;;0.20;0.20;;;28.50;74.20;;;;;;5032458;28;20450;-61
2022/08/06 13:54:04;;;;;;;0.20;0.20;;;28.80;73.60;;;;;;4991908;28;20437;-62
2022/08/06 13:56:41;;;;;;;0.20;0.20;;;29.30;72.40;;;;;;5026017;28;20537;-61
2022/08/06 13:59:19;;;;;;;0.20;0.20;;;29.30;70.10;;;;;;5015031;28;21006;-62
2022/08/06 14:01:48;;;;;;;0.30;0.30;;;29.20;70.10;;;;;;5018748;28;20442;-61
2022/08/06 14:04:21;;;;;;;0.30;0.30;;;28.90;70.80;;;;;;5016670;28;20431;-61
2022/08/06 14:06:52;;;;;;;0.20;0.20;;;29.30;70.50;;;;;;5019806;28;20444;-61
2022/08/06 14:09:23;;;;;;;0.20;0.20;;;29.00;68.70;;;;;;5010036;28;20435;-61
2022/08/06 14:11:58;;;;;;;0.20;0.20;;;28.50;69.80;;;;;;5013805;28;20566;-61
2022/08/06 14:14:28;;;;;;;0.20;0.20;;;28.60;70.40;;;;;;5003853;28;20442;-62